EGPM/SCS METAR and TAF weather

Enter ICAO airport designator
Station Type Date Time Source
EGPM METAR 2018/04/20 08:20 UTC NOAA

EGPM 200820Z 22017KT 9999 FEW014 10/07 Q1016 NOSIG


Station Type Date Time Source
EGPM Decoded METAR 2018/04/20 08:20 UTC NOAA

Scatsa / Shetland Island, United Kingdom (EGPM) 60-26N 001-18W
Apr 20, 2018 - 04:20 AM EDT / 2018.04.20 0820 UTC
Wind: from the SW (220 degrees) at 20 MPH (17 KT):0
Visibility: greater than 7 mile(s):0
Sky conditions: mostly clear
Temperature: 50 F (10 C)
Dew Point: 44 F (7 C)
Relative Humidity: 81%
Pressure (altimeter): 30.00 in. Hg (1016 hPa)
ob: EGPM 200820Z 22017KT 9999 FEW014 10/07 Q1016 NOSIG
cycle: 8

Station Type Date Time Source
EGPM TAF 2013/04/29 03:39 UTC NOAA

TAF TAF EGPM 290337Z 2903/2915 22005KT 9999 SCT030 PROB30
TEMPO 2903/2906 7000 SHRAGS
BECMG 2906/2909 32015KT PROB40
TEMPO 2906/2915 6000 SHRA SHGS BKN012CB


Example: see airport list